Forside
METAR-TAF:

METAR-TAF

Lufthavne :

Oelwein Municipal Airport

Oelwein, Iowa, USA

Breddekreds: 42-40-51N, længdekreds: 091-58-28W, højde: 328 m

Aktuelle vejr

Denne rapport blev lavet for 16 minutter siden, kl. 12:15 UTC
Vind 4 kt fra sydøst
Temperatur 16°C
Fugtighed 94%
Tryk 1019 hPa
Sigt: 16.1 km
skyfri

METAR: KOLZ 121215Z AUTO 14004KT 10SM CLR 16/15 A3010 RMK A01

Tid: 07:31 (12:31 UTC)


TAF: fraværende

Vejrobservationer og prognoser fra mere end 4000 lufthavne (METAR og TAF).

De gule og røde prikker repræsenterer de meteorologiske stationer.

Flyt musen over at se navnet på stationen.

Så klik over at se vejr observationer og prognoser.

At skifte det kort: Klik på de grønne knapper med et sort kors for at zoome ind; på den grønne knap med en bindestreg for at zoome ud; eller på de grønne pile for tilstødende kort.


METAR-TAF: